createdAt,value
2023-08-14T00:01:27.812Z,22.50
2023-08-14T00:03:55.841Z,22.40
2023-08-14T00:06:23.866Z,22.30
2023-08-14T00:08:53.413Z,22.30
2023-08-14T00:11:21.464Z,22.30
2023-08-14T00:13:54.068Z,22.20
2023-08-14T00:16:22.267Z,22.20
2023-08-14T00:18:50.599Z,22.10
2023-08-14T00:21:18.634Z,22.10
2023-08-14T00:23:47.072Z,22.20
2023-08-14T00:26:16.442Z,22.10
2023-08-14T00:28:44.454Z,22.20
2023-08-14T00:31:12.821Z,22.20
2023-08-14T00:33:40.927Z,22.20
2023-08-14T00:36:08.957Z,22.20
2023-08-14T00:38:36.941Z,22.30
2023-08-14T00:41:05.017Z,22.20
2023-08-14T00:43:35.100Z,22.20
2023-08-14T00:46:03.415Z,22.20
2023-08-14T00:48:32.367Z,22.20
2023-08-14T00:51:01.201Z,22.20
2023-08-14T00:53:31.424Z,22.20
2023-08-14T00:56:01.700Z,22.30
2023-08-14T00:58:30.227Z,22.30
2023-08-14T01:01:00.606Z,22.30
2023-08-14T01:03:28.864Z,22.30
2023-08-14T01:05:57.550Z,22.30
2023-08-14T01:08:25.889Z,22.30
2023-08-14T01:11:01.796Z,22.30
2023-08-14T01:13:38.763Z,22.30
2023-08-14T01:16:12.320Z,22.30
2023-08-14T01:18:42.776Z,22.30
2023-08-14T01:21:26.969Z,22.20
2023-08-14T01:24:09.069Z,22.20
2023-08-14T01:26:38.850Z,22.10
2023-08-14T01:29:07.010Z,22.00
2023-08-14T01:31:35.007Z,22.00
2023-08-14T01:34:03.012Z,22.00
2023-08-14T01:36:38.597Z,21.90
2023-08-14T01:39:09.907Z,21.90
2023-08-14T01:41:45.448Z,21.90
2023-08-14T01:44:17.007Z,21.80
2023-08-14T01:46:47.154Z,21.80
2023-08-14T01:49:18.650Z,21.80
2023-08-14T01:51:49.174Z,21.90
2023-08-14T01:54:17.180Z,21.80
2023-08-14T01:56:46.676Z,21.80
2023-08-14T01:59:14.672Z,21.80
2023-08-14T02:01:42.685Z,21.80
2023-08-14T02:04:10.800Z,21.70
2023-08-14T02:06:38.828Z,21.70
2023-08-14T02:09:07.005Z,21.50
2023-08-14T02:11:35.993Z,21.60
2023-08-14T02:14:05.703Z,21.60
2023-08-14T02:16:34.025Z,21.60
2023-08-14T02:19:01.989Z,21.60
2023-08-14T02:21:29.959Z,21.60
2023-08-14T02:23:57.964Z,21.60
2023-08-14T02:26:25.939Z,21.60
2023-08-14T02:28:55.148Z,21.60
2023-08-14T02:31:24.624Z,21.70
2023-08-14T02:33:52.626Z,21.60
2023-08-14T02:36:20.612Z,21.70
2023-08-14T02:38:48.572Z,21.70
2023-08-14T02:41:16.622Z,21.70
2023-08-14T02:43:44.701Z,21.60
2023-08-14T02:46:12.778Z,21.60
2023-08-14T02:48:42.831Z,21.60
2023-08-14T02:51:11.007Z,21.60
2023-08-14T02:53:39.064Z,21.60
2023-08-14T02:56:07.105Z,21.50
2023-08-14T02:58:36.913Z,21.40
2023-08-14T03:01:06.031Z,21.40
2023-08-14T03:03:34.150Z,21.30
2023-08-14T03:06:04.037Z,21.30
2023-08-14T03:08:32.016Z,21.30
2023-08-14T03:11:00.044Z,21.30
2023-08-14T03:13:28.140Z,21.30
2023-08-14T03:15:56.106Z,21.30
2023-08-14T03:18:24.081Z,21.20
2023-08-14T03:20:52.066Z,21.10
2023-08-14T03:23:21.449Z,21.10
2023-08-14T03:25:49.815Z,21.10
2023-08-14T03:28:17.819Z,21.00
2023-08-14T03:30:46.091Z,21.00
2023-08-14T03:33:14.122Z,21.00
2023-08-14T03:35:42.103Z,20.90
2023-08-14T03:38:10.068Z,21.00
2023-08-14T03:40:39.443Z,20.90
2023-08-14T03:43:07.450Z,20.80
2023-08-14T03:45:35.500Z,20.70
2023-08-14T03:48:04.590Z,20.70
2023-08-14T03:50:32.613Z,20.60
2023-08-14T03:53:00.627Z,20.60
2023-08-14T03:55:28.912Z,20.60
2023-08-14T03:57:58.825Z,20.60
2023-08-14T04:00:26.923Z,20.60
2023-08-14T04:02:55.129Z,20.60
2023-08-14T04:05:23.176Z,20.60
2023-08-14T04:07:51.194Z,20.60
2023-08-14T04:10:19.242Z,20.60
2023-08-14T04:12:47.182Z,20.60
2023-08-14T04:15:17.735Z,20.60
2023-08-14T04:17:45.959Z,20.60
2023-08-14T04:20:14.288Z,20.60
2023-08-14T04:22:42.274Z,20.60
2023-08-14T04:25:10.752Z,20.50
2023-08-14T04:27:39.515Z,20.60
2023-08-14T04:30:08.774Z,20.60
2023-08-14T04:32:38.258Z,20.70
2023-08-14T04:35:07.405Z,20.70
2023-08-14T04:37:35.392Z,20.70
2023-08-14T04:40:03.412Z,20.80
2023-08-14T04:42:31.400Z,20.80
2023-08-14T04:44:59.426Z,20.80
2023-08-14T04:47:27.427Z,20.80
2023-08-14T04:49:57.161Z,20.90
2023-08-14T04:52:25.195Z,20.90
2023-08-14T04:54:53.167Z,21.00
2023-08-14T04:57:21.134Z,21.10
2023-08-14T04:59:49.159Z,21.20
2023-08-14T05:02:17.396Z,21.30
2023-08-14T05:04:45.607Z,21.40
2023-08-14T05:07:15.066Z,21.50
2023-08-14T05:09:43.214Z,21.60
2023-08-14T05:12:11.390Z,21.70
2023-08-14T05:14:39.370Z,21.70
2023-08-14T05:17:07.369Z,21.70
2023-08-14T05:19:35.374Z,21.70
2023-08-14T05:22:03.374Z,21.70
2023-08-14T05:24:32.951Z,21.70
2023-08-14T05:27:00.947Z,21.80
2023-08-14T05:29:28.948Z,21.80
2023-08-14T05:31:56.940Z,21.80
2023-08-14T05:34:25.022Z,21.90
2023-08-14T05:36:53.145Z,22.00
2023-08-14T05:39:21.135Z,22.00
2023-08-14T05:41:50.765Z,22.10
2023-08-14T05:44:19.463Z,22.20
2023-08-14T05:46:49.526Z,22.20
2023-08-14T05:49:18.143Z,22.20
2023-08-14T05:51:46.530Z,22.20
2023-08-14T05:54:14.500Z,22.30
2023-08-14T05:56:42.512Z,22.30
2023-08-14T05:59:11.835Z,22.40
2023-08-14T06:01:40.722Z,22.50
2023-08-14T06:04:08.992Z,22.50
2023-08-14T06:06:37.073Z,22.60
2023-08-14T06:09:05.333Z,22.60
2023-08-14T06:11:33.332Z,22.70
2023-08-14T06:14:01.403Z,22.70
2023-08-14T06:16:30.812Z,22.80
2023-08-14T06:18:58.893Z,22.90
2023-08-14T06:21:26.890Z,23.10
2023-08-14T06:23:54.961Z,23.20
2023-08-14T06:26:23.525Z,23.30
2023-08-14T06:28:51.509Z,23.40
2023-08-14T06:31:19.743Z,23.40
2023-08-14T06:33:51.167Z,23.40
2023-08-14T06:36:19.937Z,23.40
2023-08-14T06:38:47.913Z,23.40
2023-08-14T06:41:15.890Z,23.50
2023-08-14T06:43:43.872Z,23.60
2023-08-14T06:46:11.901Z,23.70
2023-08-14T06:48:39.929Z,23.80
2023-08-14T06:51:09.271Z,24.00
2023-08-14T06:53:37.279Z,24.30
2023-08-14T06:56:06.142Z,24.50
2023-08-14T06:58:34.280Z,24.60
2023-08-14T07:01:02.364Z,24.70
2023-08-14T07:03:30.479Z,24.80
2023-08-14T07:05:58.532Z,25.00
2023-08-14T07:08:27.923Z,25.00
2023-08-14T07:10:56.166Z,25.10
2023-08-14T07:13:24.737Z,25.10
2023-08-14T07:15:52.717Z,25.10
2023-08-14T07:18:21.131Z,25.00
2023-08-14T07:20:49.454Z,24.90
2023-08-14T07:23:17.639Z,25.00
2023-08-14T07:25:47.270Z,25.00
2023-08-14T07:28:15.357Z,25.00
2023-08-14T07:30:43.471Z,25.20
2023-08-14T07:33:14.731Z,25.30
2023-08-14T07:35:42.861Z,25.40
2023-08-14T07:38:11.126Z,25.50
2023-08-14T07:40:39.129Z,25.60
2023-08-14T07:43:09.470Z,25.70
2023-08-14T07:45:37.641Z,25.90
2023-08-14T07:48:06.426Z,25.90
2023-08-14T07:50:34.591Z,26.00
2023-08-14T07:53:02.712Z,26.00
2023-08-14T07:55:30.782Z,26.10
2023-08-14T07:57:58.850Z,26.10
2023-08-14T08:00:28.567Z,26.10
2023-08-14T08:02:56.653Z,26.10
2023-08-14T08:05:24.720Z,26.10
2023-08-14T08:07:53.052Z,26.10
2023-08-14T08:10:21.159Z,26.10
2023-08-14T08:12:51.669Z,26.20
2023-08-14T08:15:19.852Z,26.10
2023-08-14T08:17:49.243Z,26.10
2023-08-14T08:20:17.538Z,26.10
2023-08-14T08:22:45.718Z,26.40
2023-08-14T08:25:13.768Z,26.50
2023-08-14T08:27:41.755Z,26.50
2023-08-14T08:30:10.762Z,26.50
2023-08-14T08:32:40.169Z,26.40
2023-08-14T08:35:10.691Z,26.40
2023-08-14T08:37:38.678Z,26.40
2023-08-14T08:40:08.136Z,26.60
2023-08-14T08:42:36.203Z,26.60
2023-08-14T08:45:06.998Z,26.90
2023-08-14T08:47:39.796Z,28.30
2023-08-14T08:50:10.821Z,29.70
2023-08-14T08:52:40.013Z,31.10
2023-08-14T08:55:10.118Z,30.70
2023-08-14T08:57:39.875Z,30.00
2023-08-14T09:00:09.285Z,29.30
2023-08-14T09:02:37.420Z,28.80
2023-08-14T09:05:06.188Z,28.40
2023-08-14T09:07:36.228Z,28.40
2023-08-14T09:10:04.482Z,28.30
2023-08-14T09:12:32.816Z,28.50
2023-08-14T09:15:06.636Z,28.70
2023-08-14T09:17:35.479Z,29.10
2023-08-14T09:20:08.800Z,29.90
2023-08-14T09:22:45.051Z,30.00
2023-08-14T09:25:14.236Z,29.60
2023-08-14T09:27:43.595Z,29.30
2023-08-14T09:30:14.385Z,29.10
2023-08-14T09:32:42.442Z,29.10
2023-08-14T09:35:10.685Z,29.30
2023-08-14T09:37:41.660Z,29.30
2023-08-14T09:40:14.330Z,29.20
2023-08-14T09:42:42.530Z,29.30
2023-08-14T09:45:11.095Z,30.10
2023-08-14T09:47:39.760Z,31.50
2023-08-14T09:50:08.976Z,33.30
2023-08-14T09:52:37.078Z,34.00
2023-08-14T09:55:11.541Z,36.60
2023-08-14T09:57:41.350Z,36.60
2023-08-14T10:00:12.262Z,36.70
2023-08-14T10:02:41.396Z,37.30
2023-08-14T10:05:11.642Z,38.60
2023-08-14T10:07:41.933Z,39.10
2023-08-14T10:10:12.299Z,39.50
2023-08-14T10:12:48.362Z,39.60
2023-08-14T10:15:22.357Z,39.90
2023-08-14T10:17:55.257Z,39.90
2023-08-14T10:20:25.706Z,41.60
2023-08-14T10:22:54.696Z,42.20
2023-08-14T10:25:24.294Z,42.50
2023-08-14T10:27:54.725Z,43.40
2023-08-14T10:30:24.905Z,42.50
2023-08-14T10:32:53.814Z,40.50
2023-08-14T10:35:22.621Z,39.80
2023-08-14T10:38:04.515Z,38.60
2023-08-14T10:40:38.043Z,37.30
2023-08-14T10:43:08.436Z,35.90
2023-08-14T10:45:36.625Z,34.70
2023-08-14T10:48:11.356Z,34.30
2023-08-14T10:50:40.157Z,33.80
2023-08-14T10:53:08.213Z,33.50
2023-08-14T10:55:39.067Z,33.20
2023-08-14T10:58:39.487Z,33.00
2023-08-14T11:01:09.956Z,32.80
2023-08-14T11:03:58.021Z,32.60
2023-08-14T11:06:26.751Z,32.40
2023-08-14T11:09:00.810Z,32.20
2023-08-14T11:11:29.410Z,32.00
2023-08-14T11:13:59.120Z,31.90
2023-08-14T11:16:27.549Z,31.50
2023-08-14T11:18:58.889Z,31.40
2023-08-14T11:21:31.445Z,31.20
2023-08-14T11:24:00.942Z,31.20
2023-08-14T11:26:31.570Z,31.30
2023-08-14T11:29:00.946Z,31.20
2023-08-14T11:31:34.537Z,31.20
2023-08-14T11:34:07.485Z,31.20
2023-08-14T11:36:35.630Z,31.00
2023-08-14T11:39:04.027Z,31.00
2023-08-14T11:41:35.544Z,30.90
2023-08-14T11:44:05.462Z,31.00
2023-08-14T11:46:33.613Z,31.00
2023-08-14T11:49:01.961Z,31.00
2023-08-14T11:51:31.353Z,30.90
2023-08-14T11:54:00.271Z,30.90
2023-08-14T11:56:28.384Z,30.80
2023-08-14T11:59:07.037Z,30.90
2023-08-14T12:01:39.934Z,30.90
2023-08-14T12:04:08.474Z,30.80
2023-08-14T12:06:37.302Z,30.80
2023-08-14T12:09:08.939Z,30.70
2023-08-14T12:11:39.878Z,30.70
2023-08-14T12:14:09.013Z,30.70
2023-08-14T12:16:41.702Z,30.60
2023-08-14T12:19:11.335Z,30.60
2023-08-14T12:21:40.112Z,30.60
2023-08-14T12:24:08.624Z,30.50
2023-08-14T12:26:44.682Z,30.50
2023-08-14T12:29:15.596Z,30.60
2023-08-14T12:31:45.081Z,30.50
2023-08-14T12:34:13.716Z,30.50
2023-08-14T12:36:41.805Z,30.50
2023-08-14T12:39:09.763Z,30.50
2023-08-14T12:41:38.073Z,30.50
2023-08-14T12:44:06.981Z,30.40
2023-08-14T12:46:35.036Z,30.40
2023-08-14T12:49:05.638Z,30.40
2023-08-14T12:51:34.927Z,30.40
2023-08-14T12:54:02.988Z,30.40
2023-08-14T12:56:31.732Z,30.40
2023-08-14T12:58:59.769Z,30.40
2023-08-14T13:01:27.857Z,30.40
2023-08-14T13:03:58.803Z,30.50
2023-08-14T13:06:30.963Z,30.40
2023-08-14T13:08:59.088Z,30.50
2023-08-14T13:11:28.267Z,30.50
2023-08-14T13:13:56.304Z,30.40
2023-08-14T13:16:24.531Z,30.40
2023-08-14T13:18:52.536Z,30.50
2023-08-14T13:21:20.526Z,30.50
2023-08-14T13:23:50.813Z,30.60
2023-08-14T13:28:52.078Z,30.60
2023-08-14T13:31:20.102Z,30.60
2023-08-14T13:33:48.107Z,30.70
2023-08-14T13:36:16.124Z,30.60
2023-08-14T13:38:44.069Z,30.70
2023-08-14T13:41:13.410Z,30.70
2023-08-14T13:43:41.387Z,30.80
2023-08-14T13:46:09.376Z,30.70
2023-08-14T13:48:37.529Z,30.70
2023-08-14T13:51:05.710Z,30.70
2023-08-14T13:53:34.242Z,30.70
2023-08-14T13:56:02.293Z,30.70
2023-08-14T13:58:31.612Z,30.80
2023-08-14T14:01:02.859Z,30.80
2023-08-14T14:03:31.335Z,30.90
2023-08-14T14:05:59.479Z,31.10
2023-08-14T14:08:27.602Z,31.00
2023-08-14T14:10:55.803Z,30.90
2023-08-14T14:13:23.890Z,30.80
2023-08-14T14:15:53.267Z,30.80
2023-08-14T14:18:21.365Z,30.70
2023-08-14T14:20:50.326Z,30.70
2023-08-14T14:23:18.371Z,30.60
2023-08-14T14:25:46.377Z,30.60
2023-08-14T14:28:15.610Z,30.60
2023-08-14T14:30:43.607Z,30.60
2023-08-14T14:33:12.994Z,30.60
2023-08-14T14:35:40.981Z,30.50
2023-08-14T14:38:09.010Z,30.50
2023-08-14T14:40:36.964Z,30.60
2023-08-14T14:43:05.374Z,30.50
2023-08-14T14:45:35.317Z,30.50
2023-08-14T14:48:04.165Z,30.50
2023-08-14T14:50:33.723Z,30.40
2023-08-14T14:53:01.696Z,30.40
2023-08-14T14:55:32.546Z,30.40
2023-08-14T14:58:00.564Z,30.40
2023-08-14T15:00:28.868Z,30.40
2023-08-14T15:02:56.994Z,30.30
2023-08-14T15:05:28.815Z,30.30
2023-08-14T15:07:58.856Z,30.40
2023-08-14T15:10:27.125Z,30.30
2023-08-14T15:12:55.722Z,30.30
2023-08-14T15:15:23.996Z,30.30
2023-08-14T15:17:52.038Z,30.20
2023-08-14T15:20:20.213Z,30.10
2023-08-14T15:22:48.203Z,30.10
2023-08-14T15:25:17.796Z,30.10
2023-08-14T15:27:45.969Z,30.00
2023-08-14T15:30:15.506Z,30.10
2023-08-14T15:32:43.551Z,30.10
2023-08-14T15:35:11.760Z,30.00
2023-08-14T15:37:39.740Z,30.00
2023-08-14T15:40:09.267Z,29.90
2023-08-14T15:42:38.650Z,29.80
2023-08-14T15:45:08.990Z,29.80
2023-08-14T15:47:38.337Z,29.80
2023-08-14T15:50:07.133Z,29.70
2023-08-14T15:52:35.217Z,29.70
2023-08-14T15:55:04.460Z,29.70
2023-08-14T15:57:32.461Z,29.60
2023-08-14T16:00:07.168Z,29.60
2023-08-14T16:02:35.356Z,29.60
2023-08-14T16:05:04.119Z,29.60
2023-08-14T16:07:32.121Z,29.50
2023-08-14T16:10:00.147Z,29.50
2023-08-14T16:12:28.159Z,29.50
2023-08-14T16:14:57.535Z,29.40
2023-08-14T16:17:28.851Z,29.30
2023-08-14T16:19:57.431Z,29.30
2023-08-14T16:22:25.409Z,29.30
2023-08-14T16:24:53.432Z,29.30
2023-08-14T16:27:21.669Z,29.30
2023-08-14T16:29:49.900Z,29.30
2023-08-14T16:32:17.864Z,29.30
2023-08-14T16:34:48.867Z,29.20
2023-08-14T16:37:19.076Z,29.20
2023-08-14T16:39:47.389Z,29.20
2023-08-14T16:42:15.397Z,29.10
2023-08-14T16:44:43.909Z,29.10
2023-08-14T16:47:11.891Z,29.10
2023-08-14T16:49:40.199Z,29.10
2023-08-14T16:52:09.796Z,29.00
2023-08-14T16:54:37.788Z,28.80
2023-08-14T16:57:06.926Z,28.80
2023-08-14T16:59:34.877Z,28.80
2023-08-14T17:02:02.949Z,28.80
2023-08-14T17:04:31.042Z,28.70
2023-08-14T17:06:59.033Z,28.70
2023-08-14T17:09:28.350Z,28.60
2023-08-14T17:11:56.357Z,28.60
2023-08-14T17:14:26.378Z,28.50
2023-08-14T17:16:55.171Z,28.40
2023-08-14T17:19:25.475Z,28.30
2023-08-14T17:21:53.783Z,28.20
2023-08-14T17:24:21.777Z,28.10
2023-08-14T17:26:51.086Z,28.00
2023-08-14T17:29:19.206Z,28.00
2023-08-14T17:31:48.167Z,27.90
2023-08-14T17:34:16.225Z,27.80
2023-08-14T17:36:44.197Z,27.70
2023-08-14T17:39:12.362Z,27.70
2023-08-14T17:41:40.380Z,27.60
2023-08-14T17:44:09.727Z,27.50
2023-08-14T17:46:37.999Z,27.50
2023-08-14T17:49:06.052Z,27.40
2023-08-14T17:51:34.038Z,27.30
2023-08-14T17:54:02.099Z,27.20
2023-08-14T17:56:30.089Z,27.20
2023-08-14T17:58:58.067Z,27.10
2023-08-14T18:01:27.672Z,27.00
2023-08-14T18:03:57.249Z,27.00
2023-08-14T18:06:25.672Z,26.90
2023-08-14T18:08:53.636Z,26.80
2023-08-14T18:11:21.837Z,26.80
2023-08-14T18:13:49.911Z,26.70
2023-08-14T18:16:18.006Z,26.70
2023-08-14T18:18:47.393Z,26.60
2023-08-14T18:21:23.991Z,26.60
2023-08-14T18:23:55.952Z,26.40
2023-08-14T18:26:23.933Z,26.40
2023-08-14T18:28:52.237Z,26.30
2023-08-14T18:31:20.250Z,26.20
2023-08-14T18:33:49.555Z,26.20
2023-08-14T18:36:17.535Z,26.10
2023-08-14T18:38:45.726Z,26.10
2023-08-14T18:41:13.787Z,26.00
2023-08-14T18:43:41.749Z,25.80
2023-08-14T18:46:09.929Z,25.80
2023-08-14T18:48:37.957Z,25.70
2023-08-14T18:51:07.385Z,25.60
2023-08-14T18:53:36.176Z,25.50
2023-08-14T18:56:04.225Z,25.40
2023-08-14T18:58:32.320Z,25.30
2023-08-14T19:01:00.295Z,25.20
2023-08-14T19:03:30.156Z,25.10
2023-08-14T19:05:59.120Z,25.20
2023-08-14T19:08:28.832Z,25.10
2023-08-14T19:10:56.793Z,25.00
2023-08-14T19:13:24.864Z,25.00
2023-08-14T19:15:53.252Z,25.00
2023-08-14T19:18:22.066Z,24.90
2023-08-14T19:20:51.353Z,24.90
2023-08-14T19:23:19.384Z,24.80
2023-08-14T19:25:48.724Z,24.80
2023-08-14T19:28:22.022Z,24.80
2023-08-14T19:30:50.936Z,24.80
2023-08-14T19:33:19.041Z,24.70
2023-08-14T19:35:47.159Z,24.70
2023-08-14T19:38:15.223Z,24.70
2023-08-14T19:40:43.293Z,24.70
2023-08-14T19:43:12.692Z,24.60
2023-08-14T19:45:41.557Z,24.60
2023-08-14T19:48:09.585Z,24.60
2023-08-14T19:50:37.691Z,24.50
2023-08-14T19:53:05.913Z,24.50
2023-08-14T19:55:36.455Z,24.50
2023-08-14T19:58:04.614Z,24.40
2023-08-14T20:00:33.958Z,24.40
2023-08-14T20:03:02.017Z,24.40
2023-08-14T20:05:30.069Z,24.30
2023-08-14T20:07:58.201Z,24.20
2023-08-14T20:10:26.538Z,24.20
2023-08-14T20:12:54.493Z,24.20
2023-08-14T20:15:22.461Z,24.10
2023-08-14T20:17:51.918Z,24.00
2023-08-14T20:20:20.993Z,24.00
2023-08-14T20:22:48.987Z,23.90
2023-08-14T20:25:17.236Z,24.00
2023-08-14T20:27:45.385Z,23.90
2023-08-14T20:30:14.586Z,23.90
2023-08-14T20:32:42.581Z,23.80
2023-08-14T20:35:12.206Z,23.80
2023-08-14T20:37:40.174Z,23.80
2023-08-14T20:40:10.659Z,23.70
2023-08-14T20:42:38.695Z,23.70
2023-08-14T20:45:07.539Z,23.60
2023-08-14T20:47:36.079Z,23.50
2023-08-14T20:50:04.110Z,23.50
2023-08-14T20:52:33.469Z,23.50
2023-08-14T20:55:01.575Z,23.40
2023-08-14T20:57:29.551Z,23.40
2023-08-14T20:59:57.639Z,23.40
2023-08-14T21:02:25.679Z,23.30
2023-08-14T21:04:53.655Z,23.30
2023-08-14T21:07:21.772Z,23.20
2023-08-14T21:09:51.881Z,23.20
2023-08-14T21:12:19.846Z,23.10
2023-08-14T21:14:47.819Z,23.10
2023-08-14T21:17:15.853Z,23.10
2023-08-14T21:19:43.878Z,23.00
2023-08-14T21:22:12.815Z,23.00
2023-08-14T21:24:40.824Z,23.00
2023-08-14T21:27:10.776Z,22.90
2023-08-14T21:29:38.742Z,22.90
2023-08-14T21:32:07.257Z,22.80
2023-08-14T21:34:36.842Z,22.80
2023-08-14T21:37:05.358Z,22.80
2023-08-14T21:39:33.318Z,22.70
2023-08-14T21:42:01.297Z,22.70
2023-08-14T21:44:30.656Z,22.70
2023-08-14T21:46:58.630Z,22.60
2023-08-14T21:49:26.676Z,22.60
2023-08-14T21:51:54.686Z,22.60
2023-08-14T21:54:22.691Z,22.50
2023-08-14T21:56:50.745Z,22.50
2023-08-14T21:59:18.784Z,22.50
2023-08-14T22:01:48.818Z,22.50
2023-08-14T22:04:16.856Z,22.40
2023-08-14T22:06:44.918Z,22.40
2023-08-14T22:09:12.923Z,22.40
2023-08-14T22:11:41.297Z,22.30
2023-08-14T22:14:09.508Z,22.30
2023-08-14T22:16:37.623Z,22.20
2023-08-14T22:19:07.132Z,22.20
2023-08-14T22:21:35.132Z,22.20
2023-08-14T22:24:03.179Z,22.10
2023-08-14T22:26:31.171Z,22.10
2023-08-14T22:28:59.226Z,22.10
2023-08-14T22:31:27.354Z,22.00
2023-08-14T22:33:55.525Z,22.00
2023-08-14T22:36:24.911Z,21.90
2023-08-14T22:38:52.935Z,21.90
2023-08-14T22:41:20.901Z,21.90
2023-08-14T22:43:48.882Z,21.80
2023-08-14T22:46:16.923Z,21.80
2023-08-14T22:48:44.960Z,21.80
2023-08-14T22:51:13.715Z,21.80
2023-08-14T22:53:43.522Z,21.80
2023-08-14T22:56:11.473Z,21.70
2023-08-14T22:58:39.457Z,21.60
2023-08-14T23:01:07.497Z,21.60
2023-08-14T23:03:35.563Z,21.60
2023-08-14T23:06:03.562Z,21.60
2023-08-14T23:08:31.548Z,21.60
2023-08-14T23:11:00.943Z,21.60
2023-08-14T23:13:28.917Z,21.50
2023-08-14T23:15:56.944Z,21.50
2023-08-14T23:18:24.939Z,21.50
2023-08-14T23:20:52.922Z,21.40
2023-08-14T23:23:20.895Z,21.40
2023-08-14T23:25:49.132Z,21.40
2023-08-14T23:28:18.504Z,21.40
2023-08-14T23:30:46.480Z,21.40
2023-08-14T23:33:14.446Z,21.30
2023-08-14T23:35:42.471Z,21.30
2023-08-14T23:38:10.504Z,21.30
2023-08-14T23:40:38.466Z,21.30
2023-08-14T23:43:06.445Z,21.30
2023-08-14T23:45:35.822Z,21.20
2023-08-14T23:48:03.966Z,21.20
2023-08-14T23:50:32.023Z,21.20
2023-08-14T23:53:00.037Z,21.20
2023-08-14T23:55:28.026Z,21.20
2023-08-14T23:57:56.369Z,21.20
